createdAt,value
2019-05-21T00:00:46.370Z,51.93
2019-05-21T00:03:14.842Z,52.43
2019-05-21T00:05:42.738Z,48.33
2019-05-21T00:08:09.965Z,50.30
2019-05-21T00:10:37.446Z,51.47
2019-05-21T00:13:05.917Z,49.47
2019-05-21T00:15:36.428Z,53.10
2019-05-21T00:18:04.049Z,53.07
2019-05-21T00:20:31.381Z,49.57
2019-05-21T00:22:58.627Z,52.17
2019-05-21T00:25:26.160Z,49.87
2019-05-21T00:27:59.689Z,49.13
2019-05-21T00:31:05.726Z,48.23
2019-05-21T00:34:10.055Z,48.90
2019-05-21T00:37:19.279Z,48.23
2019-05-21T00:40:25.977Z,51.77
2019-05-21T00:42:53.533Z,47.80
2019-05-21T00:45:20.873Z,48.40
2019-05-21T00:47:48.953Z,45.87
2019-05-21T00:50:17.144Z,43.70
2019-05-21T00:52:47.403Z,46.17
2019-05-21T00:55:14.450Z,45.60
2019-05-21T00:57:42.181Z,44.77
2019-05-21T01:00:10.606Z,44.17
2019-05-21T01:02:38.416Z,45.33
2019-05-21T01:05:07.529Z,41.40
2019-05-21T01:07:34.838Z,45.40
2019-05-21T01:10:02.654Z,40.20
2019-05-21T01:12:31.148Z,39.30
2019-05-21T01:14:58.071Z,40.50
2019-05-21T01:17:26.357Z,39.00
2019-05-21T01:19:53.834Z,40.20
2019-05-21T01:22:21.118Z,37.83
2019-05-21T01:24:49.125Z,39.87
2019-05-21T01:27:16.164Z,37.13
2019-05-21T01:29:43.256Z,34.00
2019-05-21T01:32:13.071Z,36.27
2019-05-21T01:34:40.039Z,34.17
2019-05-21T01:37:07.555Z,32.30
2019-05-21T01:39:35.256Z,33.50
2019-05-21T01:42:02.429Z,29.23
2019-05-21T01:44:31.361Z,29.13
2019-05-21T01:46:59.326Z,30.63
2019-05-21T01:49:27.170Z,29.23
2019-05-21T01:51:54.863Z,30.70
2019-05-21T01:54:21.896Z,27.57
2019-05-21T01:56:49.275Z,27.43
2019-05-21T01:59:17.334Z,28.17
2019-05-21T02:01:45.283Z,26.83
2019-05-21T02:04:13.585Z,26.47
2019-05-21T02:06:41.141Z,26.53
2019-05-21T02:09:09.007Z,24.00
2019-05-21T02:11:36.000Z,25.93
2019-05-21T02:14:05.422Z,25.47
2019-05-21T02:16:34.000Z,25.17
2019-05-21T02:19:01.702Z,22.87
2019-05-21T02:21:28.860Z,23.43
2019-05-21T02:23:57.643Z,21.70
2019-05-21T02:26:25.290Z,20.77
2019-05-21T02:28:53.265Z,19.80
2019-05-21T02:31:21.036Z,20.93
2019-05-21T02:33:48.586Z,19.70
2019-05-21T02:36:18.745Z,20.20
2019-05-21T02:38:46.252Z,18.67
2019-05-21T02:41:13.917Z,20.50
2019-05-21T02:43:41.640Z,17.03
2019-05-21T02:46:08.707Z,17.27
2019-05-21T02:48:36.883Z,15.73
2019-05-21T02:51:04.588Z,16.70
2019-05-21T02:53:34.603Z,16.37
2019-05-21T02:56:02.937Z,16.53
2019-05-21T02:58:32.472Z,13.93
2019-05-21T03:01:24.902Z,14.93
2019-05-21T03:03:52.839Z,13.73
2019-05-21T03:06:21.083Z,14.27
2019-05-21T03:08:48.935Z,14.63
2019-05-21T03:11:17.207Z,14.10
2019-05-21T03:13:44.297Z,13.27
2019-05-21T03:16:12.385Z,15.37
2019-05-21T03:18:41.547Z,14.83
2019-05-21T03:21:09.491Z,19.03
2019-05-21T03:23:36.754Z,15.33
2019-05-21T03:26:04.406Z,16.43
2019-05-21T03:28:31.723Z,17.17
2019-05-21T03:31:00.491Z,18.30
2019-05-21T03:33:28.456Z,18.03
2019-05-21T03:35:56.517Z,19.77
2019-05-21T03:38:24.965Z,19.07
2019-05-21T03:40:52.542Z,19.30
2019-05-21T03:43:20.845Z,20.43
2019-05-21T03:45:48.235Z,17.73
2019-05-21T03:48:15.403Z,21.47
2019-05-21T03:50:44.241Z,21.20
2019-05-21T03:53:11.766Z,18.97
2019-05-21T03:55:39.169Z,23.07
2019-05-21T03:58:07.082Z,21.60
2019-05-21T04:00:34.105Z,19.97
2019-05-21T04:03:02.658Z,22.93
2019-05-21T04:05:30.671Z,20.83
2019-05-21T04:07:58.775Z,19.43
2019-05-21T04:10:27.355Z,25.67
2019-05-21T04:13:08.021Z,21.83
2019-05-21T04:15:43.550Z,19.97
2019-05-21T04:18:17.423Z,23.00
2019-05-21T04:20:45.021Z,24.33
2019-05-21T04:23:13.476Z,25.03
2019-05-21T04:25:40.456Z,26.57
2019-05-21T04:28:08.382Z,24.77
2019-05-21T04:30:37.350Z,22.70
2019-05-21T04:33:05.401Z,25.03
2019-05-21T04:35:32.797Z,24.63
2019-05-21T04:38:00.044Z,24.30
2019-05-21T04:40:28.047Z,26.17
2019-05-21T04:43:01.720Z,21.63
2019-05-21T04:45:26.779Z,20.43
2019-05-21T04:47:54.255Z,21.13
2019-05-21T04:50:22.420Z,20.23
2019-05-21T04:52:49.800Z,20.37
2019-05-21T04:55:20.954Z,23.10
2019-05-21T04:57:48.406Z,17.20
2019-05-21T05:00:17.689Z,20.47
2019-05-21T05:02:45.460Z,23.17
2019-05-21T05:05:13.000Z,16.77
2019-05-21T05:07:42.831Z,15.90
2019-05-21T05:10:10.596Z,18.17
2019-05-21T05:12:38.759Z,14.13
2019-05-21T05:15:06.444Z,14.17
2019-05-21T05:17:33.622Z,13.80
2019-05-21T05:20:02.369Z,16.37
2019-05-21T05:22:29.824Z,18.47
2019-05-21T05:24:57.877Z,13.87
2019-05-21T05:27:25.492Z,13.13
2019-05-21T05:29:52.814Z,21.33
2019-05-21T05:32:21.502Z,12.37
2019-05-21T05:34:51.492Z,13.00
2019-05-21T05:37:18.637Z,14.17
2019-05-21T05:39:46.835Z,14.43
2019-05-21T05:42:14.334Z,11.87
2019-05-21T05:44:43.194Z,13.77
2019-05-21T05:47:11.497Z,12.37
2019-05-21T05:49:44.475Z,10.83
2019-05-21T05:52:12.406Z,12.70
2019-05-21T05:54:40.165Z,12.07
2019-05-21T05:57:09.121Z,11.83
2019-05-21T05:59:36.921Z,9.50
2019-05-21T06:02:06.960Z,11.37
2019-05-21T06:04:34.219Z,10.87
2019-05-21T06:07:01.975Z,10.63
2019-05-21T06:09:29.793Z,7.70
2019-05-21T06:11:57.706Z,9.10
2019-05-21T06:14:26.717Z,8.97
2019-05-21T06:16:54.913Z,12.37
2019-05-21T06:19:29.169Z,9.63
2019-05-21T06:21:56.719Z,8.10
2019-05-21T06:24:24.917Z,8.80
2019-05-21T06:26:53.527Z,8.03
2019-05-21T06:29:20.698Z,9.70
2019-05-21T06:31:55.674Z,8.07
2019-05-21T06:48:52.193Z,6.33
2019-05-21T06:51:19.552Z,6.30
2019-05-21T06:53:47.119Z,7.30
2019-05-21T06:56:14.640Z,9.40
2019-05-21T06:58:41.799Z,7.63
2019-05-21T07:01:09.525Z,7.60
2019-05-21T07:03:37.285Z,7.23
2019-05-21T07:06:04.574Z,6.73
2019-05-21T07:08:35.229Z,9.83
2019-05-21T07:11:09.157Z,7.67
2019-05-21T07:13:37.857Z,9.37
2019-05-21T07:16:05.066Z,7.20
2019-05-21T07:18:34.180Z,8.10
2019-05-21T07:21:02.029Z,5.80
2019-05-21T07:23:37.661Z,8.43
2019-05-21T07:26:04.777Z,7.17
2019-05-21T07:28:32.425Z,5.70
2019-05-21T07:30:59.610Z,6.37
2019-05-21T07:33:27.661Z,7.10
2019-05-21T07:35:56.137Z,5.90
2019-05-21T07:38:23.640Z,6.33
2019-05-21T07:40:51.034Z,5.00
2019-05-21T07:45:58.547Z,4.43
2019-05-21T07:48:38.088Z,4.43
2019-05-21T07:51:05.566Z,4.07
2019-05-21T07:53:33.043Z,4.50
2019-05-21T07:56:02.701Z,4.63
2019-05-21T07:58:30.724Z,4.20
2019-05-21T08:01:01.657Z,5.77
2019-05-21T08:03:29.755Z,4.43
2019-05-21T08:05:59.140Z,5.97
2019-05-21T08:08:26.427Z,5.00
2019-05-21T08:10:53.628Z,3.90
2019-05-21T08:13:21.619Z,5.17
2019-05-21T08:15:49.060Z,4.83
2019-05-21T08:18:16.826Z,3.93
2019-05-21T08:20:44.934Z,4.10
2019-05-21T08:23:12.574Z,4.20
2019-05-21T08:25:40.756Z,5.60
2019-05-21T08:28:08.660Z,4.13
2019-05-21T08:30:35.881Z,4.37
2019-05-21T08:33:04.452Z,4.00
2019-05-21T08:35:31.912Z,4.63
2019-05-21T08:37:59.407Z,5.43
2019-05-21T08:40:26.811Z,4.33
2019-05-21T08:42:54.451Z,4.40
2019-05-21T08:45:23.670Z,4.10
2019-05-21T08:47:51.425Z,4.30
2019-05-21T08:50:21.262Z,9.50
2019-05-21T08:52:50.037Z,4.27
2019-05-21T08:55:17.620Z,4.00
2019-05-21T08:58:05.508Z,4.27
2019-05-21T09:00:21.337Z,4.03
2019-05-21T09:02:48.924Z,4.10
2019-05-21T09:05:17.226Z,5.60
2019-05-21T09:07:52.333Z,5.80
2019-05-21T09:10:16.917Z,4.97
2019-05-21T09:12:44.449Z,4.17
2019-05-21T09:15:12.136Z,5.27
2019-05-21T09:17:39.525Z,5.93
2019-05-21T09:20:08.578Z,4.80
2019-05-21T09:22:36.195Z,3.80
2019-05-21T09:25:04.381Z,4.93
2019-05-21T09:27:32.094Z,4.80
2019-05-21T09:30:00.448Z,4.30
2019-05-21T09:32:27.985Z,4.27
2019-05-21T09:34:54.997Z,5.90
2019-05-21T09:37:22.655Z,12.93
2019-05-21T09:39:50.005Z,5.10
2019-05-21T09:42:18.342Z,6.60
2019-05-21T09:44:47.042Z,7.43
2019-05-21T09:47:15.431Z,5.63
2019-05-21T09:49:43.467Z,8.20
2019-05-21T09:52:10.632Z,5.63
2019-05-21T09:54:37.789Z,6.87
2019-05-21T09:57:07.518Z,7.40
2019-05-21T10:00:00.863Z,6.57
2019-05-21T10:02:29.987Z,6.27
2019-05-21T10:04:57.094Z,4.10
2019-05-21T10:07:38.861Z,7.83
2019-05-21T10:09:53.951Z,5.17
2019-05-21T10:12:21.817Z,4.80
2019-05-21T10:14:49.669Z,5.50
2019-05-21T10:17:17.201Z,9.87
2019-05-21T10:19:46.883Z,4.00
2019-05-21T10:22:14.411Z,24.50
2019-05-21T10:24:42.378Z,5.23
2019-05-21T10:27:09.877Z,4.13
2019-05-21T10:29:37.054Z,4.20
2019-05-21T10:32:05.387Z,4.63
2019-05-21T10:34:33.179Z,4.80
2019-05-21T10:37:01.473Z,4.23
2019-05-21T10:39:29.037Z,4.30
2019-05-21T10:41:56.185Z,4.00
2019-05-21T10:44:23.883Z,3.33
2019-05-21T10:46:51.556Z,3.50
2019-05-21T10:49:18.541Z,3.40
2019-05-21T10:51:47.010Z,3.90
2019-05-21T10:54:14.346Z,3.57
2019-05-21T10:56:48.050Z,3.40
2019-05-21T10:59:10.905Z,3.73
2019-05-21T11:01:46.575Z,4.13
2019-05-21T11:04:22.247Z,3.43
2019-05-21T11:06:50.654Z,3.10
2019-05-21T11:09:20.244Z,3.20
2019-05-21T11:11:48.612Z,3.57
2019-05-21T11:14:16.026Z,3.80
2019-05-21T11:16:43.813Z,3.40
2019-05-21T11:19:11.966Z,3.23
2019-05-21T11:21:39.248Z,3.40
2019-05-21T11:24:06.707Z,5.97
2019-05-21T11:26:34.054Z,2.90
2019-05-21T11:29:01.404Z,4.07
2019-05-21T11:31:30.073Z,3.50
2019-05-21T11:33:57.168Z,3.53
2019-05-21T11:36:24.369Z,3.83
2019-05-21T11:38:52.550Z,3.60
2019-05-21T11:41:20.320Z,3.50
2019-05-21T11:43:47.906Z,3.40
2019-05-21T11:46:16.060Z,3.90
2019-05-21T11:48:44.427Z,4.00
2019-05-21T11:51:13.543Z,4.43
2019-05-21T11:53:41.186Z,3.67
2019-05-21T11:56:08.528Z,3.70
2019-05-21T11:58:39.722Z,3.80
2019-05-21T12:01:06.386Z,3.70
2019-05-21T12:03:34.775Z,3.87
2019-05-21T12:06:03.552Z,3.97
2019-05-21T12:08:31.000Z,3.80
2019-05-21T12:10:58.320Z,4.87
2019-05-21T12:13:25.728Z,4.10
2019-05-21T12:15:52.816Z,4.23
2019-05-21T12:18:21.098Z,4.07
2019-05-21T12:20:48.691Z,4.53
2019-05-21T12:23:18.507Z,5.27
2019-05-21T12:25:45.841Z,4.17
2019-05-21T12:28:14.063Z,6.30
2019-05-21T12:30:41.639Z,5.40
2019-05-21T12:33:08.574Z,4.53
2019-05-21T12:35:36.978Z,5.10
2019-05-21T12:38:04.318Z,4.00
2019-05-21T12:40:31.754Z,5.10
2019-05-21T12:43:01.116Z,4.87
2019-05-21T12:45:28.153Z,5.13
2019-05-21T12:47:55.289Z,4.67
2019-05-21T12:50:23.893Z,5.03
2019-05-21T12:52:51.039Z,5.23
2019-05-21T12:55:20.070Z,6.17
2019-05-21T12:57:47.193Z,36.87
2019-05-21T13:00:15.017Z,5.07
2019-05-21T13:02:44.618Z,4.70
2019-05-21T13:05:12.009Z,5.07
2019-05-21T13:07:40.376Z,6.33
2019-05-21T13:10:12.913Z,5.10
2019-05-21T13:12:43.486Z,4.27
2019-05-21T13:15:12.562Z,4.50
2019-05-21T13:17:40.657Z,5.07
2019-05-21T13:20:08.823Z,4.23
2019-05-21T13:22:36.776Z,4.80
2019-05-21T13:25:05.479Z,5.00
2019-05-21T13:27:33.383Z,3.73
2019-05-21T13:30:02.002Z,4.17
2019-05-21T13:32:31.331Z,4.10
2019-05-21T13:34:58.897Z,3.50
2019-05-21T13:37:28.510Z,3.53
2019-05-21T13:39:56.220Z,3.77
2019-05-21T13:42:25.039Z,4.53
2019-05-21T13:44:52.348Z,3.67
2019-05-21T13:47:19.729Z,4.37
2019-05-21T13:49:48.233Z,3.60
2019-05-21T13:52:15.377Z,3.97
2019-05-21T13:54:44.500Z,3.80
2019-05-21T13:57:13.162Z,4.80
2019-05-21T13:59:40.242Z,5.97
2019-05-21T14:02:10.855Z,4.00
2019-05-21T14:04:38.178Z,4.23
2019-05-21T14:07:08.093Z,4.03
2019-05-21T14:09:35.627Z,4.50
2019-05-21T14:12:03.449Z,10.13
2019-05-21T14:14:31.230Z,5.73
2019-05-21T14:16:58.927Z,4.80
2019-05-21T14:19:27.547Z,5.50
2019-05-21T14:21:55.133Z,4.60
2019-05-21T14:24:22.718Z,4.73
2019-05-21T14:26:52.368Z,4.40
2019-05-21T14:29:19.790Z,4.33
2019-05-21T14:31:47.620Z,5.40
2019-05-21T14:34:14.919Z,5.57
2019-05-21T14:36:43.129Z,4.53
2019-05-21T14:39:14.707Z,4.80
2019-05-21T14:41:42.034Z,4.60
2019-05-21T14:44:13.572Z,4.53
2019-05-21T14:46:41.101Z,5.03
2019-05-21T14:49:09.253Z,4.00
2019-05-21T14:51:36.913Z,4.03
2019-05-21T14:54:05.036Z,4.60
2019-05-21T14:56:33.470Z,4.10
2019-05-21T14:59:01.653Z,4.43
2019-05-21T15:01:29.615Z,4.47
2019-05-21T15:03:57.489Z,4.20
2019-05-21T15:06:25.337Z,5.17
2019-05-21T15:08:53.623Z,3.50
2019-05-21T15:11:21.208Z,3.87
2019-05-21T15:13:48.740Z,4.17
2019-05-21T15:16:16.828Z,5.30
2019-05-21T15:18:44.472Z,4.30
2019-05-21T15:21:28.406Z,4.30
2019-05-21T15:23:56.931Z,3.40
2019-05-21T15:26:24.291Z,3.90
2019-05-21T15:28:52.408Z,3.87
2019-05-21T15:31:20.705Z,3.67
2019-05-21T15:33:48.121Z,5.27
2019-05-21T15:36:16.597Z,3.30
2019-05-21T15:38:50.314Z,3.93
2019-05-21T15:41:14.945Z,3.40
2019-05-21T15:43:42.298Z,3.57
2019-05-21T15:46:09.770Z,4.50
2019-05-21T15:48:39.520Z,4.13
2019-05-21T15:51:07.074Z,5.50
2019-05-21T15:53:36.001Z,3.20
2019-05-21T15:56:03.710Z,3.40
2019-05-21T15:58:31.162Z,4.17
2019-05-21T16:00:59.317Z,4.17
2019-05-21T16:03:27.829Z,4.10
2019-05-21T16:05:56.107Z,3.93
2019-05-21T16:08:23.513Z,5.33
2019-05-21T16:10:50.577Z,4.10
2019-05-21T16:13:19.770Z,3.97
2019-05-21T16:15:47.507Z,4.53
2019-05-21T16:18:14.657Z,4.07
2019-05-21T16:20:42.974Z,4.03
2019-05-21T16:23:10.293Z,4.47
2019-05-21T16:25:37.752Z,4.10
2019-05-21T16:28:05.019Z,4.07
2019-05-21T16:30:32.341Z,4.00
2019-05-21T16:33:03.549Z,4.37
2019-05-21T16:35:31.153Z,4.80
2019-05-21T16:37:58.352Z,4.43
2019-05-21T16:40:25.833Z,4.67
2019-05-21T16:42:53.108Z,4.37
2019-05-21T16:45:26.308Z,4.90
2019-05-21T16:47:54.574Z,4.70
2019-05-21T16:50:22.601Z,4.30
2019-05-21T16:52:50.168Z,4.40
2019-05-21T16:55:17.679Z,6.13
2019-05-21T16:57:51.417Z,5.13
2019-05-21T17:00:19.740Z,5.60
2019-05-21T17:02:47.525Z,5.60
2019-05-21T17:05:14.745Z,5.47
2019-05-21T17:07:44.119Z,7.43
2019-05-21T17:10:11.940Z,7.10
2019-05-21T17:12:39.397Z,6.40
2019-05-21T17:15:11.316Z,6.57
2019-05-21T17:17:38.389Z,6.80
2019-05-21T17:20:08.512Z,6.33
2019-05-21T17:22:36.256Z,16.63
2019-05-21T17:25:05.136Z,8.43
2019-05-21T17:27:33.319Z,8.93
2019-05-21T17:30:01.472Z,7.33
2019-05-21T17:32:28.842Z,7.47
2019-05-21T17:34:56.133Z,8.67
2019-05-21T17:37:23.330Z,7.87
2019-05-21T17:39:50.682Z,8.63
2019-05-21T17:42:17.841Z,8.43
2019-05-21T17:44:44.923Z,8.67
2019-05-21T17:47:12.077Z,8.00
2019-05-21T17:49:39.283Z,9.30
2019-05-21T17:52:06.474Z,9.13
2019-05-21T17:54:33.738Z,9.50
2019-05-21T17:57:01.263Z,11.27
2019-05-21T17:59:28.705Z,10.80
2019-05-21T18:01:58.718Z,11.37
2019-05-21T18:04:27.062Z,10.30
2019-05-21T18:06:55.685Z,11.57
2019-05-21T18:09:23.515Z,11.50
2019-05-21T18:11:51.154Z,11.07
2019-05-21T18:14:18.291Z,11.97
2019-05-21T18:16:45.382Z,23.97
2019-05-21T18:19:13.605Z,25.37
2019-05-21T18:21:40.609Z,17.40
2019-05-21T18:24:08.196Z,13.13
2019-05-21T18:26:35.255Z,14.67
2019-05-21T18:29:02.391Z,17.13
2019-05-21T18:31:29.511Z,14.10
2019-05-21T18:33:56.766Z,13.83
2019-05-21T18:36:23.790Z,14.80
2019-05-21T18:38:50.955Z,16.47
2019-05-21T18:41:18.134Z,17.00
2019-05-21T18:43:45.298Z,16.87
2019-05-21T18:46:12.291Z,15.67
2019-05-21T18:48:39.394Z,15.73
2019-05-21T18:51:06.341Z,15.17
2019-05-21T18:53:33.484Z,16.17
2019-05-21T18:56:00.524Z,16.63
2019-05-21T18:58:27.532Z,16.23
2019-05-21T19:00:55.844Z,15.97
2019-05-21T19:03:26.368Z,19.10
2019-05-21T19:05:52.638Z,17.33
2019-05-21T19:08:19.800Z,16.60
2019-05-21T19:10:47.276Z,20.03
2019-05-21T19:13:15.096Z,19.13
2019-05-21T19:15:42.170Z,18.43
2019-05-21T19:18:09.706Z,19.17
2019-05-21T19:20:37.113Z,18.73
2019-05-21T19:23:04.714Z,18.70
2019-05-21T19:25:31.814Z,17.97
2019-05-21T19:27:58.791Z,19.53
2019-05-21T19:30:26.109Z,19.83
2019-05-21T19:32:53.347Z,19.37
2019-05-21T19:35:20.853Z,19.97
2019-05-21T19:37:48.502Z,19.67
2019-05-21T19:40:16.580Z,20.47
2019-05-21T19:42:54.278Z,21.00
2019-05-21T19:45:14.870Z,18.70
2019-05-21T19:47:42.363Z,19.13
2019-05-21T19:50:10.469Z,19.80
2019-05-21T19:52:38.368Z,29.63
2019-05-21T19:55:06.207Z,25.17
2019-05-21T19:57:34.805Z,21.10
2019-05-21T20:00:02.959Z,21.53
2019-05-21T20:02:30.367Z,20.23
2019-05-21T20:04:58.171Z,20.37
2019-05-21T20:07:26.507Z,19.40
2019-05-21T20:09:54.099Z,21.83
2019-05-21T20:12:23.244Z,21.03
2019-05-21T20:14:50.465Z,18.67
2019-05-21T20:17:19.801Z,22.97
2019-05-21T20:19:49.018Z,21.27
2019-05-21T20:22:17.066Z,20.97
2019-05-21T20:24:45.805Z,22.60
2019-05-21T20:27:14.198Z,24.23
2019-05-21T20:29:42.892Z,23.10
2019-05-21T20:32:12.326Z,22.53
2019-05-21T20:34:40.396Z,23.67
2019-05-21T20:37:10.210Z,22.40
2019-05-21T20:39:40.597Z,23.07
2019-05-21T20:42:09.402Z,22.83
2019-05-21T20:44:37.427Z,20.37
2019-05-21T20:47:05.616Z,22.37
2019-05-21T20:49:33.369Z,25.50
2019-05-21T20:52:17.373Z,23.77
2019-05-21T20:54:30.269Z,22.53
2019-05-21T20:56:58.095Z,22.60
2019-05-21T20:59:25.726Z,23.33
2019-05-21T21:01:53.277Z,23.13
2019-05-21T21:04:21.050Z,21.87
2019-05-21T21:06:48.481Z,22.87
2019-05-21T21:09:16.131Z,23.93
2019-05-21T21:11:44.089Z,25.27
2019-05-21T21:14:17.968Z,22.97
2019-05-21T21:16:42.847Z,24.33
2019-05-21T21:19:10.704Z,22.17
2019-05-21T21:21:39.177Z,23.67
2019-05-21T21:24:07.002Z,25.57
2019-05-21T21:26:34.592Z,23.80
2019-05-21T21:29:02.177Z,25.07
2019-05-21T21:31:29.928Z,26.13
2019-05-21T21:33:57.488Z,27.13
2019-05-21T21:36:24.757Z,25.20
2019-05-21T21:38:52.639Z,26.27
2019-05-21T21:41:21.592Z,22.80
2019-05-21T21:43:49.387Z,24.07
2019-05-21T21:46:17.222Z,23.60
2019-05-21T21:48:45.762Z,25.00
2019-05-21T21:51:13.364Z,25.87
2019-05-21T21:53:41.517Z,24.33
2019-05-21T21:56:08.782Z,25.47
2019-05-21T21:58:35.802Z,25.53
2019-05-21T22:01:42.483Z,24.43
2019-05-21T22:04:11.698Z,25.40
2019-05-21T22:06:40.794Z,24.03
2019-05-21T22:09:27.123Z,25.70
2019-05-21T22:11:56.261Z,24.40
2019-05-21T22:14:23.788Z,25.57
2019-05-21T22:16:52.009Z,25.30
2019-05-21T22:19:19.880Z,23.43
2019-05-21T22:21:47.237Z,23.33
2019-05-21T22:24:14.692Z,23.63
2019-05-21T22:26:42.465Z,23.80
2019-05-21T22:29:10.259Z,24.07
2019-05-21T22:31:37.404Z,22.27
2019-05-21T22:34:04.597Z,25.57
2019-05-21T22:36:31.998Z,23.57
2019-05-21T22:38:59.801Z,22.67
2019-05-21T22:41:27.351Z,24.27
2019-05-21T22:43:54.947Z,23.53
2019-05-21T22:46:22.560Z,24.70
2019-05-21T22:48:50.193Z,24.03
2019-05-21T22:51:17.791Z,23.83
2019-05-21T22:53:45.329Z,24.07
2019-05-21T22:56:12.603Z,25.53
2019-05-21T22:58:39.649Z,23.90
2019-05-21T23:01:09.352Z,24.07
2019-05-21T23:03:36.938Z,26.27
2019-05-21T23:06:04.251Z,25.97
2019-05-21T23:08:31.362Z,27.37
2019-05-21T23:10:58.551Z,26.43
2019-05-21T23:13:25.757Z,24.87
2019-05-21T23:15:52.898Z,22.23
2019-05-21T23:18:22.030Z,25.17
2019-05-21T23:21:08.451Z,22.13
2019-05-21T23:23:37.130Z,24.07
2019-05-21T23:26:05.230Z,30.07
2019-05-21T23:28:33.098Z,27.60
2019-05-21T23:31:01.555Z,26.67
2019-05-21T23:33:28.737Z,25.47
2019-05-21T23:35:56.215Z,25.63
2019-05-21T23:38:24.503Z,26.97
2019-05-21T23:40:51.551Z,28.70
2019-05-21T23:43:19.186Z,28.53
2019-05-21T23:45:46.744Z,27.23
2019-05-21T23:48:15.595Z,27.33
2019-05-21T23:50:43.169Z,32.30
2019-05-21T23:53:10.845Z,30.57
2019-05-21T23:55:38.240Z,29.27
2019-05-21T23:58:05.524Z,30.53
